createdAt,value
2023-04-06T00:00:34.811Z,75.23
2023-04-06T00:01:34.825Z,75.70
2023-04-06T00:02:34.918Z,75.04
2023-04-06T00:03:35.062Z,75.42
2023-04-06T00:04:34.882Z,74.95
2023-04-06T00:05:34.910Z,75.04
2023-04-06T00:06:34.915Z,75.13
2023-04-06T00:07:34.936Z,75.23
2023-04-06T00:08:34.949Z,74.85
2023-04-06T00:09:34.970Z,74.28
2023-04-06T00:10:34.996Z,74.75
2023-04-06T00:11:35.004Z,74.47
2023-04-06T00:12:35.021Z,74.56
2023-04-06T00:13:35.040Z,74.37
2023-04-06T00:14:35.051Z,73.99
2023-04-06T00:15:35.070Z,74.37
2023-04-06T00:16:35.102Z,74.66
2023-04-06T00:17:35.133Z,74.47
2023-04-06T00:18:35.124Z,73.71
2023-04-06T00:19:35.146Z,73.80
2023-04-06T00:20:35.160Z,73.80
2023-04-06T00:21:35.180Z,73.99
2023-04-06T00:22:35.190Z,73.43
2023-04-06T00:23:35.208Z,73.52
2023-04-06T00:24:35.237Z,73.05
2023-04-06T00:25:35.242Z,72.96
2023-04-06T00:26:35.258Z,73.52
2023-04-06T00:27:35.278Z,73.71
2023-04-06T00:28:35.297Z,73.71
2023-04-06T00:29:35.311Z,73.43
2023-04-06T00:30:35.337Z,73.52
2023-04-06T00:31:35.415Z,73.24
2023-04-06T00:32:35.373Z,73.99
2023-04-06T00:33:35.384Z,73.33
2023-04-06T00:34:35.400Z,73.71
2023-04-06T00:35:35.444Z,73.52
2023-04-06T00:36:35.439Z,74.56
2023-04-06T00:37:35.453Z,74.37
2023-04-06T00:38:35.487Z,73.90
2023-04-06T00:39:35.488Z,74.28
2023-04-06T00:40:35.502Z,74.47
2023-04-06T00:41:35.524Z,74.37
2023-04-06T00:42:35.540Z,74.28
2023-04-06T00:43:35.556Z,74.09
2023-04-06T00:44:35.576Z,74.47
2023-04-06T00:45:35.595Z,74.66
2023-04-06T00:46:35.647Z,74.56
2023-04-06T00:47:35.675Z,74.37
2023-04-06T00:48:35.645Z,74.75
2023-04-06T00:49:35.660Z,75.04
2023-04-06T00:50:35.731Z,74.95
2023-04-06T00:51:35.705Z,74.52
2023-04-06T00:52:35.718Z,75.00
2023-04-06T00:53:35.776Z,75.28
2023-04-06T00:54:35.783Z,75.47
2023-04-06T00:55:35.762Z,75.38
2023-04-06T00:56:35.792Z,75.85
2023-04-06T00:57:35.814Z,75.85
2023-04-06T00:58:35.814Z,76.23
2023-04-06T00:59:35.928Z,76.42
2023-04-06T01:00:35.851Z,76.51
2023-04-06T01:01:35.897Z,76.70
2023-04-06T01:02:35.887Z,76.70
2023-04-06T01:03:35.903Z,76.70
2023-04-06T01:04:35.924Z,76.80
2023-04-06T01:05:35.945Z,76.99
2023-04-06T01:06:35.953Z,76.99
2023-04-06T01:07:35.973Z,77.08
2023-04-06T01:08:36.006Z,77.27
2023-04-06T01:09:36.006Z,77.18
2023-04-06T01:10:36.026Z,77.27
2023-04-06T01:11:36.036Z,76.89
2023-04-06T01:12:36.069Z,76.99
2023-04-06T01:13:36.076Z,77.46
2023-04-06T01:14:36.093Z,76.89
2023-04-06T01:15:36.143Z,76.99
2023-04-06T01:16:36.140Z,76.99
2023-04-06T01:17:36.230Z,77.65
2023-04-06T01:18:36.156Z,77.94
2023-04-06T01:19:36.171Z,76.80
2023-04-06T01:20:36.190Z,77.94
2023-04-06T01:21:36.214Z,77.65
2023-04-06T01:22:36.226Z,77.56
2023-04-06T01:23:36.241Z,77.27
2023-04-06T01:24:36.263Z,77.37
2023-04-06T01:25:36.295Z,76.70
2023-04-06T01:26:36.295Z,77.27
2023-04-06T01:27:36.313Z,77.56
2023-04-06T01:28:36.328Z,77.18
2023-04-06T01:29:36.348Z,77.08
2023-04-06T01:30:36.363Z,77.18
2023-04-06T01:31:36.440Z,76.80
2023-04-06T01:32:36.462Z,77.27
2023-04-06T01:33:36.407Z,76.61
2023-04-06T01:34:36.431Z,77.18
2023-04-06T01:35:36.487Z,77.46
2023-04-06T01:36:36.466Z,77.18
2023-04-06T01:37:36.479Z,76.80
2023-04-06T01:38:36.496Z,77.65
2023-04-06T01:39:36.517Z,77.65
2023-04-06T01:40:36.531Z,77.37
2023-04-06T01:41:36.552Z,78.03
2023-04-06T01:42:36.566Z,77.94
2023-04-06T01:43:36.582Z,78.03
2023-04-06T01:44:36.594Z,77.94
2023-04-06T01:45:36.608Z,78.03
2023-04-06T01:46:36.675Z,78.18
2023-04-06T01:47:36.678Z,77.89
2023-04-06T01:48:36.664Z,77.99
2023-04-06T01:49:36.686Z,78.18
2023-04-06T01:50:36.697Z,78.31
2023-04-06T01:51:36.710Z,78.88
2023-04-06T01:52:36.733Z,78.85
2023-04-06T01:53:36.747Z,78.65
2023-04-06T01:54:36.765Z,78.56
2023-04-06T01:55:36.780Z,78.65
2023-04-06T01:56:36.831Z,78.75
2023-04-06T01:57:36.829Z,78.37
2023-04-06T01:58:36.832Z,78.27
2023-04-06T01:59:36.918Z,78.18
2023-04-06T02:00:36.903Z,78.37
2023-04-06T02:01:36.976Z,78.56
2023-04-06T02:02:37.012Z,78.56
2023-04-06T02:03:36.916Z,79.13
2023-04-06T02:04:36.931Z,78.94
2023-04-06T02:05:36.950Z,79.22
2023-04-06T02:06:36.968Z,79.13
2023-04-06T02:07:36.985Z,79.50
2023-04-06T02:08:37.005Z,79.13
2023-04-06T02:09:37.016Z,79.50
2023-04-06T02:10:37.034Z,79.98
2023-04-06T02:11:37.051Z,79.69
2023-04-06T02:12:37.073Z,79.88
2023-04-06T02:13:37.087Z,80.17
2023-04-06T02:14:37.098Z,79.79
2023-04-06T02:15:37.119Z,80.17
2023-04-06T02:16:37.176Z,79.98
2023-04-06T02:17:37.224Z,80.45
2023-04-06T02:18:37.168Z,80.07
2023-04-06T02:19:37.211Z,80.07
2023-04-06T02:20:37.201Z,79.88
2023-04-06T02:21:37.216Z,80.55
2023-04-06T02:22:37.248Z,80.07
2023-04-06T02:23:37.249Z,80.83
2023-04-06T02:24:37.268Z,80.74
2023-04-06T02:25:37.300Z,80.74
2023-04-06T02:26:37.311Z,80.55
2023-04-06T02:27:37.322Z,80.26
2023-04-06T02:28:37.342Z,80.64
2023-04-06T02:29:37.348Z,81.30
2023-04-06T02:30:37.367Z,80.83
2023-04-06T02:31:37.412Z,80.93
2023-04-06T02:32:37.419Z,81.12
2023-04-06T02:33:37.417Z,80.74
2023-04-06T02:34:37.435Z,80.55
2023-04-06T02:35:37.486Z,80.55
2023-04-06T02:36:37.466Z,80.26
2023-04-06T02:37:37.504Z,80.55
2023-04-06T02:38:37.498Z,80.55
2023-04-06T02:39:37.520Z,80.26
2023-04-06T02:40:37.531Z,80.55
2023-04-06T02:41:37.548Z,80.93
2023-04-06T02:42:37.564Z,81.02
2023-04-06T02:43:37.585Z,80.83
2023-04-06T02:44:37.601Z,81.49
2023-04-06T02:45:37.642Z,81.30
2023-04-06T02:46:37.631Z,81.77
2023-04-06T02:47:37.691Z,81.21
2023-04-06T02:48:37.671Z,81.21
2023-04-06T02:49:37.682Z,81.49
2023-04-06T02:50:37.707Z,81.49
2023-04-06T02:51:37.724Z,81.77
2023-04-06T02:52:37.729Z,81.68
2023-04-06T02:53:37.746Z,81.87
2023-04-06T02:54:37.760Z,81.96
2023-04-06T02:55:37.781Z,81.68
2023-04-06T02:56:37.793Z,81.68
2023-04-06T02:57:37.813Z,81.96
2023-04-06T02:58:37.827Z,81.77
2023-04-06T02:59:37.872Z,82.25
2023-04-06T03:00:37.860Z,82.87
2023-04-06T03:01:37.994Z,82.87
2023-04-06T03:02:38.045Z,83.15
2023-04-06T03:03:38.017Z,83.91
2023-04-06T03:04:37.926Z,83.72
2023-04-06T03:05:37.949Z,83.53
2023-04-06T03:06:37.961Z,83.63
2023-04-06T03:07:37.984Z,83.91
2023-04-06T03:08:37.990Z,84.58
2023-04-06T03:09:38.003Z,84.39
2023-04-06T03:10:38.026Z,84.29
2023-04-06T03:11:38.042Z,84.48
2023-04-06T03:12:38.058Z,84.10
2023-04-06T03:13:38.077Z,83.72
2023-04-06T03:14:38.090Z,83.91
2023-04-06T03:15:38.110Z,83.82
2023-04-06T03:16:38.120Z,83.82
2023-04-06T03:17:38.186Z,83.91
2023-04-06T03:18:38.157Z,84.10
2023-04-06T03:19:38.167Z,83.82
2023-04-06T03:20:38.189Z,84.58
2023-04-06T03:21:38.209Z,84.39
2023-04-06T03:22:38.223Z,84.01
2023-04-06T03:23:38.230Z,84.10
2023-04-06T03:24:38.247Z,84.10
2023-04-06T03:25:38.271Z,84.86
2023-04-06T03:26:38.282Z,84.48
2023-04-06T03:27:38.297Z,84.77
2023-04-06T03:28:38.317Z,84.77
2023-04-06T03:29:38.338Z,84.48
2023-04-06T03:30:38.346Z,84.77
2023-04-06T03:31:38.398Z,84.39
2023-04-06T03:32:38.408Z,84.67
2023-04-06T03:33:38.392Z,85.05
2023-04-06T03:34:38.412Z,84.67
2023-04-06T03:35:38.451Z,84.48
2023-04-06T03:36:38.448Z,84.58
2023-04-06T03:37:38.460Z,84.77
2023-04-06T03:38:40.856Z,84.48
2023-04-06T03:39:38.509Z,84.58
2023-04-06T03:40:38.510Z,84.77
2023-04-06T03:41:38.526Z,84.86
2023-04-06T03:42:38.534Z,84.86
2023-04-06T03:43:38.554Z,84.58
2023-04-06T03:44:38.579Z,85.05
2023-04-06T03:45:38.592Z,84.95
2023-04-06T03:46:38.603Z,84.58
2023-04-06T03:47:38.680Z,84.86
2023-04-06T03:48:38.696Z,84.67
2023-04-06T03:49:40.469Z,84.95
2023-04-06T03:50:38.668Z,84.77
2023-04-06T03:51:38.682Z,84.95
2023-04-06T03:52:38.697Z,84.48
2023-04-06T03:53:38.712Z,85.33
2023-04-06T03:54:38.731Z,85.14
2023-04-06T03:55:38.745Z,85.14
2023-04-06T03:56:38.763Z,84.95
2023-04-06T03:57:38.783Z,85.14
2023-04-06T03:58:38.813Z,84.86
2023-04-06T03:59:38.914Z,84.86
2023-04-06T04:00:38.824Z,84.86
2023-04-06T04:01:38.879Z,85.05
2023-04-06T04:02:38.934Z,84.86
2023-04-06T04:03:38.930Z,84.86
2023-04-06T04:04:38.962Z,84.86
2023-04-06T04:05:38.901Z,84.86
2023-04-06T04:06:38.962Z,84.86
2023-04-06T04:07:38.934Z,85.14
2023-04-06T04:08:38.954Z,84.95
2023-04-06T04:09:38.972Z,85.24
2023-04-06T04:10:38.982Z,85.14
2023-04-06T04:11:39.007Z,85.14
2023-04-06T04:12:39.028Z,84.58
2023-04-06T04:13:39.041Z,85.14
2023-04-06T04:14:39.050Z,84.86
2023-04-06T04:15:39.074Z,85.33
2023-04-06T04:16:39.103Z,84.86
2023-04-06T04:17:39.118Z,84.95
2023-04-06T04:18:39.110Z,84.77
2023-04-06T04:19:39.123Z,84.86
2023-04-06T04:20:39.145Z,84.95
2023-04-06T04:21:39.159Z,85.14
2023-04-06T04:22:39.172Z,84.58
2023-04-06T04:23:39.197Z,84.58
2023-04-06T04:24:39.203Z,84.77
2023-04-06T04:25:39.222Z,84.95
2023-04-06T04:26:39.252Z,84.58
2023-04-06T04:27:39.257Z,84.95
2023-04-06T04:28:39.277Z,84.95
2023-04-06T04:29:39.293Z,84.95
2023-04-06T04:30:39.306Z,85.14
2023-04-06T04:31:39.382Z,85.05
2023-04-06T04:32:39.365Z,84.86
2023-04-06T04:33:39.361Z,84.95
2023-04-06T04:34:39.372Z,84.86
2023-04-06T04:35:39.432Z,84.77
2023-04-06T04:36:39.462Z,84.48
2023-04-06T04:37:39.423Z,85.24
2023-04-06T04:38:39.435Z,85.42
2023-04-06T04:39:39.459Z,85.33
2023-04-06T04:40:39.483Z,85.24
2023-04-06T04:41:39.494Z,85.05
2023-04-06T04:42:39.515Z,85.71
2023-04-06T04:43:39.577Z,85.99
2023-04-06T04:44:39.537Z,85.52
2023-04-06T04:45:39.579Z,85.52
2023-04-06T04:46:39.569Z,86.09
2023-04-06T04:47:39.630Z,86.18
2023-04-06T04:48:40.567Z,86.47
2023-04-06T04:49:39.621Z,86.47
2023-04-06T04:50:39.633Z,86.56
2023-04-06T04:51:39.662Z,86.47
2023-04-06T04:52:39.672Z,86.56
2023-04-06T04:53:39.685Z,86.56
2023-04-06T04:54:39.697Z,86.37
2023-04-06T04:55:39.711Z,86.56
2023-04-06T04:56:39.730Z,86.75
2023-04-06T04:57:39.750Z,86.66
2023-04-06T04:58:39.760Z,86.47
2023-04-06T04:59:39.843Z,86.47
2023-04-06T05:00:39.793Z,86.56
2023-04-06T05:01:53.628Z,86.18
2023-04-06T05:02:39.884Z,85.99
2023-04-06T05:03:40.026Z,86.37
2023-04-06T05:04:39.857Z,86.47
2023-04-06T05:05:39.880Z,86.09
2023-04-06T05:06:39.896Z,85.80
2023-04-06T05:07:39.913Z,85.99
2023-04-06T05:08:39.922Z,85.90
2023-04-06T05:09:39.945Z,86.28
2023-04-06T05:10:39.953Z,86.47
2023-04-06T05:11:39.969Z,86.56
2023-04-06T05:12:39.989Z,86.75
2023-04-06T05:13:40.004Z,86.66
2023-04-06T05:14:40.017Z,86.75
2023-04-06T05:15:40.045Z,86.37
2023-04-06T05:16:40.052Z,86.56
2023-04-06T05:17:40.127Z,86.66
2023-04-06T05:18:40.102Z,86.56
2023-04-06T05:19:40.136Z,86.47
2023-04-06T05:20:40.125Z,86.56
2023-04-06T05:21:40.133Z,86.37
2023-04-06T05:22:40.171Z,86.28
2023-04-06T05:23:40.191Z,86.28
2023-04-06T05:24:40.183Z,85.99
2023-04-06T05:25:40.199Z,86.18
2023-04-06T05:26:40.220Z,85.94
2023-04-06T05:27:40.232Z,85.75
2023-04-06T05:28:40.249Z,85.85
2023-04-06T05:29:40.273Z,85.94
2023-04-06T05:30:40.276Z,85.75
2023-04-06T05:31:40.319Z,85.38
2023-04-06T05:32:40.342Z,85.94
2023-04-06T05:33:40.325Z,85.85
2023-04-06T05:34:40.344Z,85.57
2023-04-06T05:35:40.393Z,85.57
2023-04-06T05:36:40.373Z,85.19
2023-04-06T05:37:40.390Z,85.66
2023-04-06T05:38:40.419Z,85.28
2023-04-06T05:39:40.423Z,85.57
2023-04-06T05:40:40.554Z,85.57
2023-04-06T05:41:40.454Z,85.94
2023-04-06T05:42:40.470Z,85.28
2023-04-06T05:43:40.485Z,85.47
2023-04-06T05:44:40.504Z,85.09
2023-04-06T05:45:40.521Z,85.28
2023-04-06T05:46:40.571Z,85.57
2023-04-06T05:47:40.622Z,85.99
2023-04-06T05:48:40.566Z,85.70
2023-04-06T05:49:40.582Z,86.18
2023-04-06T05:50:40.597Z,86.18
2023-04-06T05:51:40.623Z,86.03
2023-04-06T05:52:40.624Z,85.17
2023-04-06T05:53:40.647Z,84.89
2023-04-06T05:54:40.670Z,83.56
2023-04-06T05:55:40.682Z,82.52
2023-04-06T05:56:40.708Z,81.90
2023-04-06T05:57:40.716Z,80.86
2023-04-06T05:58:40.733Z,79.91
2023-04-06T05:59:40.796Z,79.72
2023-04-06T06:00:40.784Z,79.63
2023-04-06T06:01:40.804Z,78.81
2023-04-06T06:02:41.073Z,78.43
2023-04-06T06:03:40.829Z,78.15
2023-04-06T06:04:40.876Z,78.24
2023-04-06T06:05:40.868Z,77.48
2023-04-06T06:06:40.874Z,77.24
2023-04-06T06:07:40.892Z,76.57
2023-04-06T06:08:40.916Z,76.39
2023-04-06T06:09:40.930Z,76.04
2023-04-06T06:10:40.947Z,75.28
2023-04-06T06:11:40.995Z,74.43
2023-04-06T06:12:41.007Z,74.66
2023-04-06T06:13:41.002Z,73.14
2023-04-06T06:14:41.020Z,71.84
2023-04-06T06:15:41.044Z,70.51
2023-04-06T06:16:41.189Z,69.46
2023-04-06T06:17:41.093Z,68.90
2023-04-06T06:18:41.095Z,68.17
2023-04-06T06:19:41.114Z,67.88
2023-04-06T06:20:41.135Z,66.65
2023-04-06T06:21:41.157Z,66.27
2023-04-06T06:22:41.168Z,65.03
2023-04-06T06:23:41.193Z,65.16
2023-04-06T06:24:41.215Z,64.69
2023-04-06T06:25:41.230Z,64.21
2023-04-06T06:26:41.250Z,63.67
2023-04-06T06:27:41.268Z,63.01
2023-04-06T06:28:41.298Z,62.81
2023-04-06T06:29:41.312Z,62.53
2023-04-06T06:30:41.333Z,61.29
2023-04-06T06:31:41.371Z,60.66
2023-04-06T06:32:41.430Z,60.56
2023-04-06T06:33:41.401Z,60.66
2023-04-06T06:34:41.417Z,59.80
2023-04-06T06:35:41.481Z,59.70
2023-04-06T06:36:41.460Z,60.27
2023-04-06T06:37:41.493Z,59.13
2023-04-06T06:38:41.506Z,59.61
2023-04-06T06:39:41.524Z,59.61
2023-04-06T06:40:41.543Z,58.47
2023-04-06T06:41:41.561Z,58.28
2023-04-06T06:42:41.584Z,57.70
2023-04-06T06:43:41.618Z,58.28
2023-04-06T06:44:41.626Z,58.08
2023-04-06T06:45:41.655Z,57.89
2023-04-06T06:46:41.710Z,57.42
2023-04-06T06:47:41.728Z,57.60
2023-04-06T06:48:41.715Z,57.89
2023-04-06T06:49:41.746Z,57.60
2023-04-06T06:50:41.753Z,57.70
2023-04-06T06:51:41.778Z,58.15
2023-04-06T06:52:41.803Z,58.72
2023-04-06T06:53:41.823Z,59.48
2023-04-06T06:54:41.842Z,59.27
2023-04-06T06:55:41.860Z,58.79
2023-04-06T06:56:41.883Z,59.90
2023-04-06T06:57:41.904Z,59.90
2023-04-06T06:58:41.928Z,60.75
2023-04-06T06:59:41.976Z,61.48
2023-04-06T07:00:41.991Z,62.15
2023-04-06T07:01:42.042Z,62.43
2023-04-06T07:02:42.086Z,63.39
2023-04-06T07:03:42.025Z,63.54
2023-04-06T07:04:42.117Z,64.21
2023-04-06T07:05:42.086Z,64.87
2023-04-06T07:06:42.111Z,65.73
2023-04-06T07:07:42.124Z,65.82
2023-04-06T07:08:42.134Z,65.82
2023-04-06T07:09:42.153Z,65.63
2023-04-06T07:10:42.172Z,66.11
2023-04-06T07:11:42.201Z,66.11
2023-04-06T07:12:42.233Z,66.20
2023-04-06T07:13:42.227Z,66.39
2023-04-06T07:14:42.253Z,67.06
2023-04-06T07:15:42.309Z,67.06
2023-04-06T07:16:42.311Z,67.53
2023-04-06T07:17:42.375Z,67.63
2023-04-06T07:18:42.325Z,67.91
2023-04-06T07:19:42.344Z,67.82
2023-04-06T07:20:42.363Z,67.82
2023-04-06T07:21:42.402Z,67.53
2023-04-06T07:22:42.421Z,66.96
2023-04-06T07:23:42.447Z,67.44
2023-04-06T07:24:42.474Z,67.25
2023-04-06T07:25:42.457Z,67.15
2023-04-06T07:26:42.496Z,67.06
2023-04-06T07:27:42.521Z,67.15
2023-04-06T07:28:42.530Z,67.47
2023-04-06T07:29:42.540Z,66.67
2023-04-06T07:30:42.560Z,66.52
2023-04-06T07:31:42.624Z,66.33
2023-04-06T07:32:42.609Z,66.24
2023-04-06T07:33:42.626Z,66.14
2023-04-06T07:34:42.639Z,66.52
2023-04-06T07:35:42.706Z,66.42
2023-04-06T07:36:42.681Z,66.52
2023-04-06T07:37:42.703Z,66.33
2023-04-06T07:38:42.740Z,66.52
2023-04-06T07:39:42.745Z,66.42
2023-04-06T07:40:42.760Z,65.76
2023-04-06T07:41:42.780Z,65.86
2023-04-06T07:42:42.793Z,65.95
2023-04-06T07:43:42.821Z,65.28
2023-04-06T07:44:42.853Z,65.22
2023-04-06T07:45:42.883Z,64.56
2023-04-06T07:46:42.890Z,64.37
2023-04-06T07:47:42.962Z,64.65
2023-04-06T07:48:42.924Z,64.46
2023-04-06T07:49:42.948Z,64.46
2023-04-06T07:50:42.965Z,64.84
2023-04-06T07:51:42.983Z,64.56
2023-04-06T07:52:43.007Z,64.84
2023-04-06T07:53:43.024Z,64.27
2023-04-06T07:54:43.072Z,63.70
2023-04-06T07:55:43.069Z,63.70
2023-04-06T07:56:43.085Z,63.60
2023-04-06T07:57:43.104Z,63.60
2023-04-06T07:58:43.131Z,64.21
2023-04-06T07:59:43.269Z,64.50
2023-04-06T08:00:43.167Z,63.35
2023-04-06T08:01:43.185Z,62.97
2023-04-06T08:02:43.438Z,62.69
2023-04-06T08:03:43.412Z,62.69
2023-04-06T08:04:45.200Z,62.69
2023-04-06T08:05:43.276Z,62.59
2023-04-06T08:06:43.287Z,62.78
2023-04-06T08:07:43.310Z,62.88
2023-04-06T08:08:43.327Z,62.49
2023-04-06T08:09:43.352Z,62.78
2023-04-06T08:10:43.375Z,62.88
2023-04-06T08:11:43.391Z,63.35
2023-04-06T08:12:43.411Z,63.17
2023-04-06T08:13:43.432Z,63.96
2023-04-06T08:14:43.452Z,63.96
2023-04-06T08:15:43.508Z,63.39
2023-04-06T08:16:43.496Z,63.48
2023-04-06T08:17:43.561Z,63.67
2023-04-06T08:18:43.530Z,63.48
2023-04-06T08:19:43.563Z,62.81
2023-04-06T08:20:43.588Z,62.81
2023-04-06T08:21:43.601Z,62.53
2023-04-06T08:22:43.625Z,62.15
2023-04-06T08:23:43.637Z,61.77
2023-04-06T08:24:43.665Z,61.19
2023-04-06T08:25:43.683Z,61.38
2023-04-06T08:26:43.695Z,61.19
2023-04-06T08:27:43.723Z,61.29
2023-04-06T08:28:46.358Z,61.38
2023-04-06T08:29:43.767Z,61.67
2023-04-06T08:30:43.783Z,61.48
2023-04-06T08:31:43.901Z,61.58
2023-04-06T08:32:43.842Z,61.70
2023-04-06T08:33:43.848Z,62.65
2023-04-06T08:34:43.880Z,62.65
2023-04-06T08:35:43.929Z,61.99
2023-04-06T08:36:43.914Z,61.70
2023-04-06T08:37:43.931Z,61.80
2023-04-06T08:38:43.999Z,61.90
2023-04-06T08:39:43.975Z,61.45
2023-04-06T08:40:44.024Z,61.25
2023-04-06T08:41:44.020Z,61.93
2023-04-06T08:42:44.038Z,61.35
2023-04-06T08:43:44.059Z,60.97
2023-04-06T08:44:44.081Z,60.69
2023-04-06T08:45:44.100Z,60.59
2023-04-06T08:46:44.148Z,59.64
2023-04-06T08:47:44.184Z,60.11
2023-04-06T08:48:44.183Z,59.83
2023-04-06T08:49:44.189Z,59.64
2023-04-06T08:50:44.207Z,59.16
2023-04-06T08:51:44.232Z,58.50
2023-04-06T08:52:44.256Z,58.40
2023-04-06T08:53:44.269Z,58.78
2023-04-06T08:54:44.294Z,59.64
2023-04-06T08:55:44.312Z,59.26
2023-04-06T08:56:44.338Z,59.57
2023-04-06T08:57:44.375Z,60.05
2023-04-06T08:58:44.387Z,60.33
2023-04-06T08:59:44.425Z,59.76
2023-04-06T09:00:44.424Z,59.57
2023-04-06T09:01:44.491Z,59.09
2023-04-06T09:02:44.570Z,59.00
2023-04-06T09:03:44.601Z,59.00
2023-04-06T09:04:44.594Z,58.52
2023-04-06T09:05:44.530Z,58.62
2023-04-06T09:06:44.550Z,58.81
2023-04-06T09:07:44.574Z,58.81
2023-04-06T09:08:44.594Z,58.62
2023-04-06T09:09:44.620Z,58.52
2023-04-06T09:10:44.636Z,58.52
2023-04-06T09:11:44.667Z,58.52
2023-04-06T09:12:44.694Z,59.00
2023-04-06T09:13:44.704Z,58.84
2023-04-06T09:14:44.725Z,58.55
2023-04-06T09:15:44.813Z,58.55
2023-04-06T09:16:44.767Z,57.70
2023-04-06T09:17:44.837Z,57.70
2023-04-06T09:18:44.817Z,57.12
2023-04-06T09:19:44.838Z,56.93
2023-04-06T09:20:44.858Z,57.22
2023-04-06T09:21:44.882Z,56.17
2023-04-06T09:22:44.901Z,55.69
2023-04-06T09:23:44.969Z,55.41
2023-04-06T09:24:44.955Z,55.53
2023-04-06T09:25:44.969Z,55.88
2023-04-06T09:26:44.990Z,55.43
2023-04-06T09:27:45.510Z,55.43
2023-04-06T09:28:45.038Z,55.53
2023-04-06T09:29:45.060Z,55.62
2023-04-06T09:30:45.082Z,55.82
2023-04-06T09:31:45.135Z,55.91
2023-04-06T09:32:45.151Z,55.43
2023-04-06T09:33:45.152Z,55.24
2023-04-06T09:34:45.174Z,55.34
2023-04-06T09:35:45.237Z,54.48
2023-04-06T09:36:45.219Z,54.77
2023-04-06T09:37:45.238Z,54.19
2023-04-06T09:38:45.257Z,54.48
2023-04-06T09:39:45.278Z,54.29
2023-04-06T09:40:54.384Z,54.67
2023-04-06T09:41:47.639Z,54.10
2023-04-06T09:42:45.347Z,54.57
2023-04-06T09:43:45.370Z,54.77
2023-04-06T09:44:45.398Z,54.77
2023-04-06T09:45:45.415Z,54.48
2023-04-06T09:46:55.820Z,54.48
2023-04-06T09:47:45.649Z,54.29
2023-04-06T09:48:45.483Z,54.48
2023-04-06T09:49:45.505Z,54.60
2023-04-06T09:50:45.522Z,54.38
2023-04-06T09:51:45.548Z,53.74
2023-04-06T09:52:45.569Z,54.50
2023-04-06T09:53:45.592Z,53.55
2023-04-06T09:54:45.614Z,53.74
2023-04-06T09:55:45.642Z,53.17
2023-04-06T09:56:45.766Z,53.36
2023-04-06T09:57:45.748Z,52.40
2023-04-06T09:58:45.725Z,52.31
2023-04-06T09:59:45.807Z,52.88
2023-04-06T10:00:45.779Z,52.69
2023-04-06T10:01:45.773Z,53.74
2023-04-06T10:02:45.887Z,53.45
2023-04-06T10:03:45.876Z,53.84
2023-04-06T10:04:45.837Z,54.22
2023-04-06T10:05:45.860Z,54.32
2023-04-06T10:06:45.875Z,54.79
2023-04-06T10:07:57.267Z,54.79
2023-04-06T10:08:45.924Z,54.60
2023-04-06T10:09:45.946Z,54.50
2023-04-06T10:10:45.972Z,54.53
2023-04-06T10:11:45.992Z,54.41
2023-04-06T10:12:46.017Z,53.86
2023-04-06T10:13:46.034Z,53.58
2023-04-06T10:14:46.062Z,53.77
2023-04-06T10:15:46.078Z,53.77
2023-04-06T10:16:46.162Z,53.39
2023-04-06T10:17:46.157Z,53.58
2023-04-06T10:18:46.151Z,53.29
2023-04-06T10:19:46.169Z,53.77
2023-04-06T10:20:46.207Z,53.77
2023-04-06T10:21:46.223Z,52.81
2023-04-06T10:22:46.243Z,52.43
2023-04-06T10:23:46.271Z,53.00
2023-04-06T10:24:46.285Z,53.39
2023-04-06T10:25:46.307Z,53.70
2023-04-06T10:26:46.325Z,53.29
2023-04-06T10:27:46.367Z,53.00
2023-04-06T10:28:46.389Z,52.81
2023-04-06T10:29:46.397Z,52.62
2023-04-06T10:30:46.423Z,52.15
2023-04-06T10:31:46.470Z,52.75
2023-04-06T10:32:48.185Z,52.72
2023-04-06T10:33:46.505Z,52.53
2023-04-06T10:34:46.521Z,52.15
2023-04-06T10:35:46.563Z,52.43
2023-04-06T10:36:46.567Z,52.72
2023-04-06T10:37:46.587Z,52.43
2023-04-06T10:38:46.631Z,53.13
2023-04-06T10:39:46.639Z,53.22
2023-04-06T10:40:46.658Z,52.46
2023-04-06T10:41:46.717Z,52.46
2023-04-06T10:42:46.715Z,52.36
2023-04-06T10:43:48.608Z,51.98
2023-04-06T10:44:46.771Z,50.52
2023-04-06T10:45:46.804Z,50.14
2023-04-06T10:46:46.799Z,50.62
2023-04-06T10:47:46.844Z,51.19
2023-04-06T10:48:46.846Z,51.48
2023-04-06T10:49:46.867Z,51.95
2023-04-06T10:50:46.902Z,52.05
2023-04-06T10:51:46.912Z,52.72
2023-04-06T10:52:46.938Z,52.72
2023-04-06T10:53:46.966Z,52.24
2023-04-06T10:54:49.742Z,52.94
2023-04-06T10:55:47.005Z,52.46
2023-04-06T10:56:47.040Z,52.65
2023-04-06T10:57:47.054Z,52.55
2023-04-06T10:58:47.076Z,52.84
2023-04-06T10:59:47.098Z,52.75
2023-04-06T11:00:50.612Z,52.46
2023-04-06T11:01:47.226Z,52.75
2023-04-06T11:02:47.249Z,53.06
2023-04-06T11:03:47.358Z,52.01
2023-04-06T11:04:47.265Z,51.91
2023-04-06T11:05:48.189Z,52.29
2023-04-06T11:06:47.260Z,52.48
2023-04-06T11:07:47.284Z,52.01
2023-04-06T11:08:47.306Z,50.48
2023-04-06T11:09:56.160Z,49.71
2023-04-06T11:10:47.350Z,49.33
2023-04-06T11:11:47.394Z,48.95
2023-04-06T11:12:47.397Z,48.95
2023-04-06T11:13:47.439Z,49.14
2023-04-06T11:14:47.459Z,48.75
2023-04-06T11:15:47.473Z,48.95
2023-04-06T11:16:47.534Z,48.85
2023-04-06T11:17:47.529Z,48.18
2023-04-06T11:18:47.537Z,47.89
2023-04-06T11:19:47.572Z,47.99
2023-04-06T11:20:47.581Z,47.99
2023-04-06T11:21:47.618Z,48.57
2023-04-06T11:22:47.630Z,48.66
2023-04-06T11:23:47.651Z,48.11
2023-04-06T11:24:47.677Z,47.99
2023-04-06T11:25:47.707Z,47.42
2023-04-06T11:26:47.721Z,46.94
2023-04-06T11:27:47.753Z,46.94
2023-04-06T11:28:47.772Z,46.94
2023-04-06T11:29:47.792Z,46.84
2023-04-06T11:30:47.856Z,47.89
2023-04-06T11:31:47.863Z,48.21
2023-04-06T11:32:47.912Z,48.39
2023-04-06T11:33:47.901Z,48.02
2023-04-06T11:34:47.912Z,48.11
2023-04-06T11:35:47.939Z,47.92
2023-04-06T11:36:47.973Z,46.30
2023-04-06T11:37:47.988Z,46.39
2023-04-06T11:38:48.022Z,46.58
2023-04-06T11:39:48.045Z,46.77
2023-04-06T11:40:48.058Z,47.06
2023-04-06T11:41:48.078Z,46.87
2023-04-06T11:42:48.106Z,46.39
2023-04-06T11:43:48.130Z,46.48
2023-04-06T11:44:48.146Z,45.81
2023-04-06T11:45:48.180Z,46.58
2023-04-06T11:46:48.283Z,46.39
2023-04-06T11:47:48.238Z,46.30
2023-04-06T11:48:48.290Z,46.39
2023-04-06T11:49:48.272Z,46.30
2023-04-06T11:50:48.294Z,46.39
2023-04-06T11:51:48.321Z,47.06
2023-04-06T11:52:48.342Z,46.31
2023-04-06T11:53:48.365Z,46.31
2023-04-06T11:54:48.404Z,45.65
2023-04-06T11:55:48.430Z,45.36
2023-04-06T11:56:48.443Z,44.88
2023-04-06T11:57:48.478Z,44.76
2023-04-06T11:58:48.489Z,45.72
2023-04-06T11:59:48.534Z,46.12
2023-04-06T12:00:48.533Z,46.61
2023-04-06T12:01:48.567Z,45.84
2023-04-06T12:02:48.735Z,44.79
2023-04-06T12:03:48.775Z,45.94
2023-04-06T12:04:48.862Z,46.51
2023-04-06T12:05:48.650Z,46.41
2023-04-06T12:06:48.676Z,44.98
2023-04-06T12:07:48.704Z,45.00
2023-04-06T12:08:48.738Z,44.43
2023-04-06T12:09:48.745Z,43.56
2023-04-06T12:10:48.772Z,43.37
2023-04-06T12:11:48.795Z,42.60
2023-04-06T12:12:48.825Z,42.80
2023-04-06T12:13:48.847Z,43.08
2023-04-06T12:14:48.877Z,43.47
2023-04-06T12:15:48.977Z,43.27
2023-04-06T12:16:48.919Z,43.76
2023-04-06T12:17:48.959Z,43.95
2023-04-06T12:18:48.971Z,43.95
2023-04-06T12:19:48.991Z,43.85
2023-04-06T12:20:49.024Z,43.66
2023-04-06T12:21:49.041Z,43.66
2023-04-06T12:22:49.069Z,43.18
2023-04-06T12:23:49.093Z,42.90
2023-04-06T12:24:49.116Z,42.90
2023-04-06T12:25:49.141Z,42.99
2023-04-06T12:26:51.544Z,42.80
2023-04-06T12:27:49.204Z,42.41
2023-04-06T12:28:49.221Z,42.44
2023-04-06T12:29:49.240Z,42.32
2023-04-06T12:30:49.263Z,42.44
2023-04-06T12:31:49.384Z,42.53
2023-04-06T12:32:51.265Z,42.44
2023-04-06T12:33:49.341Z,40.81
2023-04-06T12:34:49.366Z,41.28
2023-04-06T12:35:49.393Z,41.19
2023-04-06T12:36:49.433Z,41.67
2023-04-06T12:37:49.443Z,42.34
2023-04-06T12:38:49.474Z,42.44
2023-04-06T12:39:49.488Z,42.05
2023-04-06T12:40:49.516Z,41.67
2023-04-06T12:41:49.632Z,41.77
2023-04-06T12:42:49.565Z,41.86
2023-04-06T12:43:49.595Z,41.86
2023-04-06T12:44:49.617Z,42.14
2023-04-06T12:45:49.642Z,42.46
2023-04-06T12:46:49.711Z,42.74
2023-04-06T12:47:49.892Z,41.69
2023-04-06T12:48:49.734Z,41.31
2023-04-06T12:49:49.747Z,41.42
2023-04-06T12:50:49.777Z,41.50
2023-04-06T12:51:49.889Z,40.66
2023-04-06T12:52:49.826Z,40.66